Time;durP1;ratioP1;P1;durP2;ratioP2;P2;SDS_P1;SDS_P2;PMS_P1;PMS_P2;Temp;Humidity;BMP_temperature;BMP_pressure;BME280_temperature;BME280_humidity;BME280_pressure;Samples;Min_cycle;Max_cycle;Signal;HPM_P1;HPM_P2
2022/01/23 00:00:57;;;;;;;55.42;49.63;;;16.50;55.80;;;;;;4929179;28;96668;-75
2022/01/23 00:03:23;;;;;;;55.50;49.72;;;16.50;55.80;;;;;;4930287;28;95556;-75
2022/01/23 00:05:51;;;;;;;55.75;49.85;;;16.50;55.80;;;;;;4940553;28;96608;-75
2022/01/23 00:08:20;;;;;;;55.55;49.80;;;16.40;55.80;;;;;;4944319;28;101331;-75
2022/01/23 00:10:46;;;;;;;55.38;49.58;;;16.40;55.80;;;;;;4936058;28;96047;-74
2022/01/23 00:13:26;;;;;;;55.33;49.58;;;16.40;55.80;;;;;;4927555;28;96726;-75
2022/01/23 00:18:37;;;;;;;55.30;49.30;;;16.40;55.80;;;;;;4931594;28;97328;-75
2022/01/23 00:21:03;;;;;;;54.75;49.05;;;16.40;56.00;;;;;;4925655;28;97284;-75
2022/01/23 00:23:34;;;;;;;55.53;49.75;;;16.40;55.90;;;;;;4943561;28;102356;-75
2022/01/23 00:31:31;;;;;;;55.13;49.38;;;16.30;55.90;;;;;;4949502;28;95905;-75
2022/01/23 00:33:58;;;;;;;55.33;49.67;;;16.30;56.10;;;;;;4950159;28;95116;-75
2022/01/23 00:36:25;;;;;;;55.88;49.97;;;16.30;56.10;;;;;;4945093;28;96902;-75
2022/01/23 00:38:51;;;;;;;55.33;49.67;;;16.30;56.00;;;;;;4954384;28;95830;-76
2022/01/23 00:41:18;;;;;;;55.42;49.72;;;16.30;56.00;;;;;;4934232;28;100669;-75
2022/01/23 00:43:45;;;;;;;54.92;49.22;;;16.30;56.10;;;;;;4946559;28;95654;-75
2022/01/23 00:49:30;;;;;;;55.47;49.65;;;16.20;56.10;;;;;;4957269;28;96445;-75
2022/01/23 00:51:38;;;;;;;54.95;49.33;;;16.30;56.10;;;;;;4944584;28;95101;-75
2022/01/23 00:54:11;;;;;;;55.65;49.80;;;16.30;56.10;;;;;;4949485;28;98224;-75
2022/01/23 00:56:37;;;;;;;55.45;49.65;;;16.20;56.20;;;;;;4938305;28;97260;-75
2022/01/23 00:59:03;;;;;;;55.17;49.47;;;16.30;56.10;;;;;;4946190;28;97422;-75
2022/01/23 01:01:29;;;;;;;54.88;49.17;;;16.20;56.10;;;;;;4937660;28;96065;-75
2022/01/23 01:03:55;;;;;;;55.25;49.55;;;16.20;56.10;;;;;;4950948;28;96016;-75
2022/01/23 01:06:20;;;;;;;54.58;49.00;;;16.20;56.20;;;;;;4942609;28;100688;-75
2022/01/23 01:08:49;;;;;;;55.22;49.53;;;16.20;56.10;;;;;;4922690;28;98686;-75
2022/01/23 01:37:47;;;;;;;55.72;50.03;;;16.10;56.30;;;;;;4941646;28;102073;-75
2022/01/23 01:40:13;;;;;;;55.15;49.55;;;16.10;56.20;;;;;;4927804;28;97288;-75
2022/01/23 01:42:39;;;;;;;55.17;49.58;;;16.10;56.20;;;;;;4936135;28;95812;-76
2022/01/23 01:45:05;;;;;;;55.33;49.63;;;16.10;56.20;;;;;;4920732;28;96026;-76
2022/01/23 01:47:31;;;;;;;55.38;49.67;;;16.10;56.00;;;;;;4931752;28;98142;-76
2022/01/23 01:49:57;;;;;;;55.00;49.30;;;16.20;56.10;;;;;;4944901;28;97910;-75
2022/01/23 01:52:34;;;;;;;54.80;49.15;;;16.20;56.00;;;;;;3874387;28;10082226;-75
2022/01/23 01:55:04;;;;;;;55.20;49.50;;;16.30;56.00;;;;;;1669415;28;10097064;-75
2022/01/23 01:57:38;;;;;;;55.17;49.50;;;16.40;56.00;;;;;;4939146;28;96827;-75
2022/01/23 02:00:24;;;;;;;54.90;49.30;;;16.50;55.80;;;;;;4945459;28;102837;-75
2022/01/23 02:10:49;;;;;;;55.33;49.65;;;16.90;54.90;;;;;;4941773;28;95482;-75
2022/01/23 02:13:18;;;;;;;55.25;49.60;;;17.00;54.70;;;;;;4942856;28;96375;-75
2022/01/23 02:51:14;;;;;;;55.90;50.17;;;17.20;53.80;;;;;;4931017;28;96034;-75
2022/01/23 02:54:07;;;;;;;54.67;48.97;;;17.20;53.80;;;;;;4913056;28;99039;-75
2022/01/23 02:56:33;;;;;;;55.17;49.47;;;17.20;53.90;;;;;;4918452;28;97551;-75
2022/01/23 02:59:10;;;;;;;54.53;48.92;;;17.10;54.50;;;;;;4896216;28;96116;-75
2022/01/23 03:01:46;;;;;;;55.28;49.47;;;17.10;53.90;;;;;;4935717;28;99684;-75
2022/01/23 03:04:11;;;;;;;54.92;49.28;;;17.10;53.90;;;;;;4939191;28;96253;-75
2022/01/23 03:07:14;;;;;;;55.33;49.67;;;17.10;54.00;;;;;;4899702;28;95957;-75
2022/01/23 03:10:17;;;;;;;54.78;49.10;;;17.10;54.10;;;;;;4920655;28;100445;-75
2022/01/23 03:14:52;;;;;;;55.28;49.58;;;17.00;54.20;;;;;;4926847;28;96377;-75
2022/01/23 03:28:37;;;;;;;54.67;48.97;;;16.90;54.40;;;;;;4915346;28;96906;-75
2022/01/23 03:33:30;;;;;;;55.03;49.33;;;16.80;54.40;;;;;;4938653;28;97387;-75
2022/01/23 03:35:55;;;;;;;54.65;49.05;;;16.80;54.60;;;;;;4935822;28;96035;-75
2022/01/23 03:38:21;;;;;;;54.90;49.30;;;16.80;54.50;;;;;;4930081;28;96647;-75
2022/01/23 03:40:47;;;;;;;54.85;49.33;;;16.80;54.60;;;;;;4951735;28;95324;-75
2022/01/23 03:43:14;;;;;;;55.20;49.55;;;16.70;54.70;;;;;;4945811;28;95394;-75
2022/01/23 03:50:52;;;;;;;55.00;49.33;;;16.70;54.70;;;;;;4943039;28;97612;-75
2022/01/23 03:53:18;;;;;;;54.97;49.33;;;16.70;54.70;;;;;;4935451;28;96040;-75
2022/01/23 03:55:44;;;;;;;54.85;49.28;;;16.60;54.80;;;;;;4942906;28;97185;-75
2022/01/23 03:58:10;;;;;;;54.92;49.22;;;16.60;54.90;;;;;;4912135;28;96775;-75
2022/01/23 04:00:36;;;;;;;54.92;49.33;;;16.60;55.10;;;;;;4923795;28;100072;-75
2022/01/23 04:03:01;;;;;;;55.10;49.45;;;16.60;55.00;;;;;;4944001;28;96501;-75
2022/01/23 04:05:27;;;;;;;55.50;49.70;;;16.60;55.00;;;;;;4942729;28;96748;-75
2022/01/23 04:07:53;;;;;;;54.45;48.92;;;16.50;55.00;;;;;;4923259;28;96087;-75
2022/01/23 04:10:21;;;;;;;54.78;49.17;;;16.50;55.20;;;;;;4927985;28;96246;-75
2022/01/23 04:12:55;;;;;;;54.97;49.38;;;16.50;55.10;;;;;;4936679;28;97380;-75
2022/01/23 04:20:42;;;;;;;54.83;49.17;;;16.50;55.30;;;;;;4944429;28;95881;-75
2022/01/23 04:34:21;;;;;;;55.20;49.50;;;16.40;55.30;;;;;;4951066;28;95452;-75
2022/01/23 05:04:24;;;;;;;53.00;47.65;;;16.30;55.50;;;;;;2620352;28;10098795;-76
2022/01/23 05:09:26;;;;;;;54.40;48.90;;;16.50;55.60;;;;;;4935295;28;97732;-76
2022/01/23 05:11:59;;;;;;;53.95;48.40;;;16.70;55.60;;;;;;4915316;28;97268;-75
2022/01/23 05:14:33;;;;;;;54.63;48.92;;;17.00;55.10;;;;;;4928172;28;97018;-76
2022/01/23 05:17:00;;;;;;;55.20;49.53;;;17.20;54.80;;;;;;4937184;28;95320;-75
2022/01/23 05:19:26;;;;;;;55.00;49.25;;;17.40;54.30;;;;;;4943387;28;98523;-75
2022/01/23 05:22:06;;;;;;;54.53;48.92;;;17.60;54.60;;;;;;4931502;28;97424;-76
2022/01/23 05:24:39;;;;;;;54.20;48.67;;;17.80;53.50;;;;;;4939867;28;95927;-76
2022/01/23 05:27:07;;;;;;;54.90;49.30;;;18.00;53.20;;;;;;4920518;28;96193;-76
2022/01/23 05:29:33;;;;;;;54.85;49.20;;;18.20;52.80;;;;;;4945679;28;96056;-76
2022/01/23 05:31:59;;;;;;;55.22;49.47;;;18.30;52.30;;;;;;4933884;28;98983;-76
2022/01/23 05:34:26;;;;;;;55.05;49.17;;;18.50;52.00;;;;;;4939439;28;96194;-76
2022/01/23 05:36:52;;;;;;;55.03;49.33;;;18.60;51.60;;;;;;4917706;28;98591;-76
2022/01/23 05:39:21;;;;;;;55.15;49.45;;;18.80;51.60;;;;;;4946038;28;95772;-76
2022/01/23 05:41:52;;;;;;;55.13;49.35;;;18.80;51.20;;;;;;4947544;28;100873;-75
2022/01/23 05:44:18;;;;;;;54.65;49.08;;;18.90;51.00;;;;;;4930293;28;95844;-76
2022/01/23 05:46:43;;;;;;;54.65;49.05;;;19.00;50.80;;;;;;4942960;28;96012;-74
2022/01/23 05:49:09;;;;;;;55.15;49.38;;;19.00;50.70;;;;;;4943020;28;94324;-76
2022/01/23 05:51:34;;;;;;;55.45;49.65;;;19.10;50.60;;;;;;4936142;28;95870;-74
2022/01/23 05:54:00;;;;;;;55.33;49.53;;;19.10;50.70;;;;;;4958125;28;96994;-75
2022/01/23 05:56:26;;;;;;;55.50;49.70;;;19.10;50.50;;;;;;4944383;28;96396;-75
2022/01/23 05:58:52;;;;;;;55.45;49.65;;;19.10;50.50;;;;;;4944556;28;101382;-76
2022/01/23 06:01:17;;;;;;;54.70;49.00;;;19.10;50.30;;;;;;4929453;28;98317;-76
2022/01/23 06:03:43;;;;;;;54.95;49.25;;;19.10;50.30;;;;;;4940827;28;101229;-76
2022/01/23 06:06:08;;;;;;;55.55;49.78;;;19.00;50.40;;;;;;4946915;28;96790;-76
2022/01/23 06:08:34;;;;;;;55.22;49.53;;;19.00;50.50;;;;;;4939917;28;96849;-76
2022/01/23 06:11:00;;;;;;;55.55;49.83;;;19.00;50.40;;;;;;4946721;28;96391;-76
2022/01/23 06:13:27;;;;;;;55.03;49.35;;;19.00;50.40;;;;;;4946452;28;95843;-76
2022/01/23 06:15:54;;;;;;;55.33;49.63;;;18.90;50.60;;;;;;4931314;28;101170;-76
2022/01/23 06:18:20;;;;;;;55.70;49.90;;;18.90;50.70;;;;;;4924327;28;95286;-76
2022/01/23 06:20:46;;;;;;;55.00;49.30;;;18.90;50.70;;;;;;4939048;28;103073;-76
2022/01/23 06:23:13;;;;;;;55.28;49.47;;;18.80;50.80;;;;;;4921631;28;98461;-75
2022/01/23 06:25:45;;;;;;;55.17;49.38;;;18.80;50.90;;;;;;4926624;28;97692;-76
2022/01/23 06:28:14;;;;;;;54.90;49.20;;;18.80;50.90;;;;;;4933508;28;100471;-76
2022/01/23 06:30:41;;;;;;;55.15;49.35;;;18.70;50.90;;;;;;4919291;28;97210;-76
2022/01/23 06:33:07;;;;;;;55.58;49.78;;;18.70;51.10;;;;;;4939908;28;96826;-76
2022/01/23 06:35:35;;;;;;;55.50;49.72;;;18.70;51.10;;;;;;4946286;28;95766;-75
2022/01/23 06:38:01;;;;;;;55.00;49.35;;;18.60;51.20;;;;;;4946276;28;96918;-75
2022/01/23 06:40:27;;;;;;;54.53;48.92;;;18.50;51.20;;;;;;4943495;28;95567;-75
2022/01/23 06:42:52;;;;;;;55.53;49.53;;;18.50;51.90;;;;;;4925080;28;97734;-75
2022/01/23 06:45:18;;;;;;;55.13;49.42;;;18.40;51.40;;;;;;4944010;28;97528;-75
2022/01/23 06:47:44;;;;;;;55.20;49.50;;;18.40;51.30;;;;;;4950887;28;97193;-75
2022/01/23 06:50:09;;;;;;;55.28;49.58;;;18.40;51.40;;;;;;4948030;28;95969;-75
2022/01/23 06:52:35;;;;;;;55.05;49.35;;;18.40;51.50;;;;;;4943159;28;99289;-75
2022/01/23 06:55:01;;;;;;;55.33;49.63;;;18.30;51.60;;;;;;4928023;28;95784;-75
2022/01/23 06:57:26;;;;;;;55.17;49.28;;;18.20;51.80;;;;;;4911363;28;100866;-75
2022/01/23 06:59:52;;;;;;;54.88;49.08;;;18.20;51.80;;;;;;4949371;28;95327;-75
2022/01/23 07:02:17;;;;;;;55.22;49.42;;;18.20;52.00;;;;;;4936241;28;96624;-75
2022/01/23 07:04:43;;;;;;;55.00;49.28;;;18.10;52.00;;;;;;4951852;28;95420;-75
2022/01/23 07:07:09;;;;;;;55.13;49.25;;;18.10;52.00;;;;;;4945342;28;95702;-75
2022/01/23 07:09:34;;;;;;;55.60;49.80;;;18.10;52.10;;;;;;4929385;28;97022;-75
2022/01/23 07:12:00;;;;;;;55.38;49.65;;;18.00;52.20;;;;;;4933314;28;96230;-75
2022/01/23 07:14:26;;;;;;;55.22;49.42;;;18.00;52.20;;;;;;4937786;28;95568;-75
2022/01/23 07:16:51;;;;;;;54.80;49.17;;;17.90;52.40;;;;;;4939487;28;96642;-75
2022/01/23 07:19:17;;;;;;;55.70;49.88;;;17.90;52.40;;;;;;4948119;28;97654;-75
2022/01/23 07:21:43;;;;;;;55.15;49.35;;;17.90;52.50;;;;;;4945284;28;95097;-76
2022/01/23 07:24:09;;;;;;;55.10;49.40;;;17.80;52.40;;;;;;4941500;28;95794;-75
2022/01/23 07:26:36;;;;;;;54.65;48.92;;;17.80;52.50;;;;;;4947410;28;94394;-75
2022/01/23 07:29:04;;;;;;;54.95;49.20;;;17.80;52.70;;;;;;4948837;28;97704;-75
2022/01/23 07:34:09;;;;;;;55.05;49.35;;;17.70;52.70;;;;;;4946747;28;98789;-75
2022/01/23 07:36:36;;;;;;;54.95;49.30;;;17.70;52.80;;;;;;4923023;28;97237;-75
2022/01/23 07:39:04;;;;;;;54.13;48.53;;;17.60;52.90;;;;;;4950807;28;97439;-75
2022/01/23 07:41:29;;;;;;;54.88;49.08;;;17.60;52.90;;;;;;4952742;28;98376;-75
2022/01/23 07:43:55;;;;;;;54.70;49.05;;;17.70;53.20;;;;;;4951590;28;95515;-75
2022/01/23 07:46:21;;;;;;;54.38;48.85;;;17.70;52.90;;;;;;4949876;28;96914;-75
2022/01/23 07:48:47;;;;;;;55.03;49.22;;;17.80;52.80;;;;;;4950179;28;101667;-75
2022/01/23 07:51:13;;;;;;;54.40;48.65;;;17.80;52.70;;;;;;4961501;28;99019;-75
2022/01/23 07:53:39;;;;;;;54.53;48.92;;;17.80;52.70;;;;;;4955449;28;95507;-75
2022/01/23 07:56:04;;;;;;;54.95;49.17;;;17.90;52.60;;;;;;4956511;28;97028;-75
2022/01/23 07:58:30;;;;;;;54.70;49.13;;;18.00;52.60;;;;;;4946811;28;96966;-75
2022/01/23 08:00:56;;;;;;;55.35;49.45;;;18.00;52.30;;;;;;4942884;28;95706;-75
2022/01/23 08:03:21;;;;;;;55.00;49.33;;;18.10;52.20;;;;;;4944973;28;96008;-75
2022/01/23 08:05:47;;;;;;;55.15;49.35;;;18.10;52.10;;;;;;4944621;28;96501;-75
2022/01/23 08:08:13;;;;;;;55.20;49.40;;;18.20;52.00;;;;;;4951824;28;95625;-75
2022/01/23 08:10:39;;;;;;;55.47;49.72;;;18.20;51.90;;;;;;4959513;28;100681;-75
2022/01/23 08:13:05;;;;;;;54.40;48.75;;;18.20;51.80;;;;;;4954657;28;96787;-75
2022/01/23 08:15:46;;;;;;;54.08;48.52;;;18.20;51.90;;;;;;2473625;28;10096988;-76
2022/01/23 08:18:15;;;;;;;54.70;48.95;;;18.20;51.80;;;;;;3222963;28;10098276;-75
2022/01/23 08:20:41;;;;;;;54.80;49.10;;;18.20;51.80;;;;;;4942554;28;96102;-75
2022/01/23 08:23:07;;;;;;;55.45;49.55;;;18.20;51.80;;;;;;4938236;28;96437;-75
2022/01/23 08:25:32;;;;;;;54.72;48.95;;;18.20;51.70;;;;;;4942663;28;103379;-75
2022/01/23 08:27:59;;;;;;;55.22;49.53;;;18.20;51.80;;;;;;4944906;28;97052;-74
2022/01/23 08:30:25;;;;;;;55.55;49.75;;;18.20;51.90;;;;;;4933976;28;97656;-75
2022/01/23 08:32:51;;;;;;;54.42;48.85;;;18.20;52.00;;;;;;4949721;28;95747;-75
2022/01/23 08:35:17;;;;;;;55.22;49.40;;;18.10;52.00;;;;;;4954315;28;99363;-75
2022/01/23 08:37:43;;;;;;;55.38;49.47;;;18.10;51.90;;;;;;4949258;28;95377;-75
2022/01/23 08:40:21;;;;;;;55.30;49.58;;;18.10;52.10;;;;;;4962525;28;94426;-75
2022/01/23 08:42:47;;;;;;;54.97;49.28;;;18.00;52.00;;;;;;4950941;28;95774;-75
2022/01/23 08:45:14;;;;;;;55.25;49.50;;;18.00;52.10;;;;;;4943212;28;95787;-75
2022/01/23 08:47:40;;;;;;;54.92;49.28;;;18.00;52.10;;;;;;4953291;28;96054;-75
2022/01/23 08:50:06;;;;;;;55.63;49.83;;;17.90;52.20;;;;;;4949192;28;95285;-75
2022/01/23 08:52:32;;;;;;;54.55;48.95;;;17.90;52.40;;;;;;4956978;28;94806;-74
2022/01/23 08:54:57;;;;;;;55.70;49.90;;;17.90;52.40;;;;;;4955118;28;96601;-75
2022/01/23 08:57:25;;;;;;;55.55;49.70;;;17.90;52.40;;;;;;4950791;28;96356;-74
2022/01/23 08:59:51;;;;;;;55.38;49.50;;;17.80;52.40;;;;;;4957792;28;96139;-75
2022/01/23 09:02:18;;;;;;;54.88;49.28;;;17.80;52.50;;;;;;4953117;28;96118;-75
2022/01/23 09:04:47;;;;;;;55.38;49.58;;;17.80;52.60;;;;;;4947257;28;95947;-75
2022/01/23 09:07:13;;;;;;;54.97;49.28;;;17.70;52.60;;;;;;4945603;28;99993;-75
2022/01/23 09:09:40;;;;;;;55.60;49.67;;;17.70;52.60;;;;;;4926317;28;95651;-75
2022/01/23 09:12:29;;;;;;;55.58;49.88;;;17.70;52.70;;;;;;4941435;28;102115;-75
2022/01/23 09:14:55;;;;;;;55.72;49.83;;;17.80;52.80;;;;;;4949218;28;97522;-74
2022/01/23 09:17:21;;;;;;;56.50;50.50;;;17.80;52.60;;;;;;4959259;28;95475;-74
2022/01/23 09:19:47;;;;;;;55.83;49.97;;;17.90;52.50;;;;;;4950876;28;97301;-73
2022/01/23 09:22:14;;;;;;;55.38;49.50;;;17.90;52.50;;;;;;4941831;28;95653;-74
2022/01/23 09:24:40;;;;;;;55.85;49.97;;;18.00;52.30;;;;;;4933206;28;97858;-75
2022/01/23 09:27:09;;;;;;;56.63;50.75;;;18.10;52.30;;;;;;4933257;28;97101;-74
2022/01/23 09:29:41;;;;;;;55.90;50.10;;;18.10;52.20;;;;;;4934457;28;96073;-73
2022/01/23 09:32:13;;;;;;;55.67;49.88;;;18.20;52.00;;;;;;4944293;28;95045;-74
2022/01/23 09:34:41;;;;;;;55.95;50.10;;;18.20;51.90;;;;;;4944726;28;98359;-74
2022/01/23 09:37:09;;;;;;;55.53;49.67;;;18.20;52.00;;;;;;4923458;28;97118;-75
2022/01/23 09:39:36;;;;;;;55.75;49.92;;;18.30;51.80;;;;;;4945028;28;101233;-74
2022/01/23 09:42:55;;;;;;;56.28;50.45;;;18.30;51.80;;;;;;4949554;28;96718;-73
2022/01/23 09:45:22;;;;;;;55.92;50.13;;;18.30;51.70;;;;;;4880666;28;96069;-76
2022/01/23 09:47:48;;;;;;;55.85;50.05;;;18.30;51.70;;;;;;4935542;28;96656;-75
2022/01/23 09:50:15;;;;;;;55.75;49.95;;;18.30;51.80;;;;;;4930472;28;101100;-75
2022/01/23 09:52:42;;;;;;;56.33;50.42;;;18.30;51.80;;;;;;4939539;28;101305;-76
2022/01/23 09:55:11;;;;;;;55.45;49.65;;;18.30;52.00;;;;;;4919425;28;94725;-75
2022/01/23 09:57:43;;;;;;;56.67;50.65;;;18.30;51.80;;;;;;4934691;28;96910;-75
2022/01/23 10:00:20;;;;;;;56.40;50.40;;;18.20;51.90;;;;;;4920780;28;97184;-75
2022/01/23 10:02:46;;;;;;;56.38;50.55;;;18.20;51.80;;;;;;4920648;28;97370;-75
2022/01/23 10:05:13;;;;;;;56.47;50.47;;;18.20;52.00;;;;;;4935614;28;99457;-75
2022/01/23 10:07:41;;;;;;;56.00;50.10;;;18.20;52.00;;;;;;4927560;28;97623;-75
2022/01/23 10:10:14;;;;;;;57.08;50.90;;;18.10;52.00;;;;;;4927660;28;98102;-75
2022/01/23 10:12:42;;;;;;;56.42;50.50;;;18.10;52.10;;;;;;4933956;28;96355;-75
2022/01/23 10:15:09;;;;;;;56.38;50.47;;;18.10;52.20;;;;;;4940599;28;96606;-75
2022/01/23 10:17:35;;;;;;;56.22;50.33;;;18.10;52.20;;;;;;4914193;28;96374;-75
2022/01/23 10:20:06;;;;;;;56.55;50.65;;;18.00;52.10;;;;;;4948010;28;95440;-75
2022/01/23 10:22:34;;;;;;;56.70;50.80;;;18.00;52.20;;;;;;4941869;28;96606;-75
2022/01/23 10:25:19;;;;;;;56.47;50.47;;;18.00;52.40;;;;;;4934404;28;96497;-75
2022/01/23 10:28:06;;;;;;;56.28;50.40;;;18.00;52.40;;;;;;4912858;28;101176;-75
2022/01/23 10:30:39;;;;;;;56.38;50.38;;;17.90;52.50;;;;;;4943245;22;100301;-75
2022/01/23 10:33:26;;;;;;;56.50;50.60;;;17.90;52.60;;;;;;4951224;28;95773;-75
2022/01/23 10:36:27;;;;;;;56.55;50.63;;;17.90;52.50;;;;;;4954959;28;100736;-75
2022/01/23 10:39:01;;;;;;;56.33;50.33;;;17.90;52.70;;;;;;4918185;28;98717;-75
2022/01/23 10:49:49;;;;;;;56.97;50.88;;;18.20;52.20;;;;;;4956768;28;99774;-75
2022/01/23 10:52:25;;;;;;;56.83;50.78;;;18.20;52.00;;;;;;4944706;28;95679;-75
2022/01/23 10:54:51;;;;;;;56.33;50.33;;;18.30;51.90;;;;;;4960978;28;101356;-75
2022/01/23 10:57:16;;;;;;;55.78;49.78;;;18.30;51.90;;;;;;4950490;28;100316;-75
2022/01/23 10:59:50;;;;;;;55.33;49.53;;;18.40;52.00;;;;;;4950617;28;95994;-75
2022/01/23 11:02:21;;;;;;;55.45;49.53;;;18.50;51.90;;;;;;4963062;28;96312;-75
2022/01/23 11:05:06;;;;;;;56.13;49.85;;;18.50;51.80;;;;;;4933284;28;96745;-75
2022/01/23 11:07:33;;;;;;;44.47;39.97;;;18.60;51.60;;;;;;261683;28;10107171;-76
2022/01/23 11:10:12;;;;;;;55.55;49.80;;;18.60;51.50;;;;;;4944872;28;95907;-76
2022/01/23 11:17:59;;;;;;;55.80;49.80;;;18.60;51.60;;;;;;4948903;28;95548;-76
2022/01/23 11:20:44;;;;;;;55.72;49.90;;;18.60;51.70;;;;;;4948323;28;104069;-76
2022/01/23 11:23:24;;;;;;;55.55;49.65;;;18.60;51.70;;;;;;4952672;28;96432;-76
2022/01/23 11:25:56;;;;;;;54.85;49.05;;;18.60;51.80;;;;;;4944597;28;95852;-74
2022/01/23 11:28:37;;;;;;;55.85;49.88;;;18.50;51.80;;;;;;4951922;28;96864;-76
2022/01/23 11:31:06;;;;;;;56.13;50.15;;;18.60;51.80;;;;;;4952837;28;96169;-76
2022/01/23 11:33:31;;;;;;;55.95;50.05;;;18.50;51.80;;;;;;4949972;28;96714;-76
2022/01/23 11:35:57;;;;;;;55.47;49.58;;;18.50;51.80;;;;;;4944131;28;96509;-75
2022/01/23 11:38:24;;;;;;;56.05;50.15;;;18.40;51.90;;;;;;4950562;28;95284;-76
2022/01/23 11:54:49;;;;;;;56.22;50.13;;;18.40;52.20;;;;;;4958451;28;97607;-76
2022/01/23 11:57:36;;;;;;;55.80;49.83;;;18.40;52.00;;;;;;4962044;28;94797;-76
2022/01/23 12:00:30;;;;;;;56.88;50.67;;;18.50;52.00;;;;;;4958792;28;97874;-75
2022/01/23 12:03:20;;;;;;;55.45;49.67;;;18.50;51.80;;;;;;4948217;28;99394;-75
2022/01/23 12:05:47;;;;;;;56.40;50.40;;;18.60;51.80;;;;;;4956195;28;96275;-75
2022/01/23 12:08:19;;;;;;;55.85;49.85;;;18.70;51.80;;;;;;4970471;28;97400;-75
2022/01/23 12:11:23;;;;;;;57.58;50.38;;;18.70;51.60;;;;;;4973482;28;96021;-75
2022/01/23 12:17:01;;;;;;;56.25;50.13;;;19.00;51.10;;;;;;4963116;28;96840;-78
2022/01/23 12:19:41;;;;;;;57.38;50.42;;;19.20;50.80;;;;;;4970767;28;100543;-74
2022/01/23 12:22:42;;;;;;;56.55;50.42;;;19.20;50.60;;;;;;4977375;28;94992;-75
2022/01/23 12:25:23;;;;;;;56.72;50.63;;;19.30;50.40;;;;;;4968213;28;97574;-74
2022/01/23 12:28:28;;;;;;;56.53;50.53;;;19.40;50.30;;;;;;4976182;28;95757;-75
2022/01/23 12:31:14;;;;;;;56.92;50.28;;;19.50;50.10;;;;;;4961232;28;95884;-74
2022/01/23 12:33:40;;;;;;;58.78;50.38;;;19.50;50.00;;;;;;4966732;28;94137;-73
2022/01/23 12:36:23;;;;;;;56.65;50.45;;;19.60;49.90;;;;;;4977448;28;96003;-75
2022/01/23 12:39:12;;;;;;;58.22;50.88;;;19.60;50.40;;;;;;4949929;28;96631;-74
2022/01/23 12:41:39;;;;;;;56.78;50.42;;;19.60;49.80;;;;;;4970512;28;97018;-74
2022/01/23 12:44:09;;;;;;;56.80;50.60;;;19.60;49.80;;;;;;4974774;28;94604;-74
2022/01/23 12:46:48;;;;;;;57.67;51.28;;;19.60;49.60;;;;;;4973481;28;94824;-74
2022/01/23 12:49:24;;;;;;;61.13;52.38;;;19.60;49.60;;;;;;4966356;28;95272;-74
2022/01/23 12:52:18;;;;;;;58.05;51.70;;;19.60;49.70;;;;;;4967702;28;97509;-74
2022/01/23 12:54:52;;;;;;;58.10;51.70;;;19.50;49.70;;;;;;4946934;28;96586;-74
2022/01/23 12:57:34;;;;;;;58.42;52.13;;;19.40;50.00;;;;;;4972111;28;95641;-74
2022/01/23 13:00:04;;;;;;;58.78;52.38;;;19.30;50.00;;;;;;4964103;28;100804;-75
2022/01/23 13:02:40;;;;;;;57.83;51.58;;;19.30;50.20;;;;;;4952864;28;97180;-72
2022/01/23 13:05:06;;;;;;;57.38;51.33;;;19.20;50.30;;;;;;4968126;28;96178;-73
2022/01/23 13:12:51;;;;;;;57.80;51.50;;;19.20;50.10;;;;;;4964788;28;95726;-73
2022/01/23 13:15:45;;;;;;;57.08;50.97;;;19.10;50.20;;;;;;4958363;28;96433;-72
2022/01/23 13:34:59;;;;;;;57.13;50.92;;;18.80;51.20;;;;;;4961097;28;95994;-71
2022/01/23 13:37:31;;;;;;;57.85;50.97;;;18.80;51.20;;;;;;4973168;28;95786;-72
2022/01/23 13:40:04;;;;;;;;;;;18.80;51.20;;;;;;4961839;28;97076;-73
2022/01/23 13:42:49;;;;;;;57.30;51.10;;;18.90;51.20;;;;;;4954209;28;95278;-71
2022/01/23 13:57:32;;;;;;;56.72;50.65;;;19.40;50.20;;;;;;4977329;28;95336;-72
2022/01/23 14:02:37;;;;;;;56.92;50.85;;;19.60;49.80;;;;;;4972085;28;96862;-72
2022/01/23 14:05:02;;;;;;;56.85;50.72;;;19.70;49.60;;;;;;4976988;28;95833;-72
2022/01/23 14:07:29;;;;;;;57.20;51.00;;;19.70;49.60;;;;;;4972413;28;97018;-73
2022/01/23 14:09:59;;;;;;;56.95;50.85;;;19.70;49.50;;;;;;4969338;28;98829;-72
2022/01/23 14:12:26;;;;;;;58.35;52.05;;;19.70;49.40;;;;;;4945427;28;96093;-72
2022/01/23 14:14:54;;;;;;;58.22;51.90;;;19.70;49.30;;;;;;4971407;28;95923;-73
2022/01/23 14:17:21;;;;;;;58.30;52.00;;;19.70;49.10;;;;;;4949973;28;95772;-72
2022/01/23 14:20:16;;;;;;;57.30;51.10;;;19.60;49.30;;;;;;1264348;27;10105080;-73
2022/01/23 14:22:44;;;;;;;58.22;51.92;;;19.50;49.30;;;;;;3936474;28;10096895;-73
2022/01/23 14:25:12;;;;;;;58.08;51.50;;;19.50;49.50;;;;;;4970294;28;96200;-73
2022/01/23 14:27:39;;;;;;;57.58;51.38;;;19.40;49.70;;;;;;4949972;28;98211;-72
2022/01/23 14:30:14;;;;;;;58.05;51.85;;;19.40;49.90;;;;;;4963979;28;96479;-72
2022/01/23 14:32:46;;;;;;;58.03;51.92;;;19.40;49.90;;;;;;4973791;28;97522;-72
2022/01/23 14:35:16;;;;;;;58.88;52.50;;;19.30;49.90;;;;;;4973771;28;95939;-73
2022/01/23 14:37:44;;;;;;;58.78;52.40;;;19.20;50.50;;;;;;4970099;28;95465;-72
2022/01/23 14:40:10;;;;;;;58.80;52.50;;;19.20;50.10;;;;;;4973002;28;96312;-72
2022/01/23 14:42:36;;;;;;;59.13;52.72;;;19.10;50.20;;;;;;4978041;28;95223;-72
2022/01/23 14:45:09;;;;;;;58.63;52.08;;;19.10;50.20;;;;;;4976914;28;94637;-72
2022/01/23 14:47:39;;;;;;;58.45;52.15;;;19.00;50.40;;;;;;4984279;28;95472;-72
2022/01/23 14:50:10;;;;;;;57.97;51.88;;;18.90;50.40;;;;;;4972115;28;97557;-72
2022/01/23 14:52:38;;;;;;;58.10;51.83;;;18.90;50.50;;;;;;4965930;28;96092;-73
2022/01/23 14:55:04;;;;;;;58.53;52.13;;;18.80;50.40;;;;;;4966012;28;98362;-73
2022/01/23 14:57:33;;;;;;;58.08;51.88;;;18.80;50.70;;;;;;4977891;28;96435;-73
2022/01/23 14:59:59;;;;;;;57.80;51.60;;;18.70;50.60;;;;;;4982346;28;95444;-72
2022/01/23 15:02:25;;;;;;;58.28;51.97;;;18.70;50.80;;;;;;4970775;28;96131;-73
2022/01/23 15:04:51;;;;;;;57.83;51.67;;;18.60;50.90;;;;;;4941523;28;100684;-72
2022/01/23 15:07:18;;;;;;;57.85;51.60;;;18.60;50.90;;;;;;4941959;28;97340;-73
2022/01/23 15:09:49;;;;;;;58.05;51.78;;;18.50;50.90;;;;;;4979124;28;94341;-73
2022/01/23 15:12:17;;;;;;;59.15;52.88;;;18.50;51.00;;;;;;4984733;28;95952;-73
2022/01/23 15:14:43;;;;;;;58.00;51.95;;;18.50;51.00;;;;;;4952922;28;98555;-72
2022/01/23 15:17:09;;;;;;;57.47;51.35;;;18.50;51.10;;;;;;4974322;28;96630;-72
2022/01/23 15:19:35;;;;;;;58.22;52.03;;;18.40;51.20;;;;;;4924857;28;96840;-72
2022/01/23 15:22:01;;;;;;;57.47;51.30;;;18.40;51.20;;;;;;4960270;28;96489;-72
2022/01/23 15:24:27;;;;;;;58.20;52.00;;;18.30;51.20;;;;;;4977936;28;95493;-72
2022/01/23 15:26:53;;;;;;;57.95;51.78;;;18.30;51.30;;;;;;4960880;28;97432;-72
2022/01/23 15:29:19;;;;;;;58.55;52.30;;;18.30;51.30;;;;;;4980412;28;95803;-72
2022/01/23 15:31:45;;;;;;;58.00;51.80;;;18.20;51.40;;;;;;4973013;28;96909;-73
2022/01/23 15:34:10;;;;;;;57.80;51.70;;;18.20;51.50;;;;;;4976556;28;95867;-72
2022/01/23 15:36:36;;;;;;;57.63;51.45;;;18.20;51.60;;;;;;4968866;28;97988;-73
2022/01/23 15:39:05;;;;;;;57.28;51.15;;;18.30;52.30;;;;;;4972832;28;95555;-72
2022/01/23 15:41:31;;;;;;;57.42;51.33;;;18.30;51.70;;;;;;4971163;28;96013;-72
2022/01/23 15:43:57;;;;;;;56.88;50.90;;;18.50;51.70;;;;;;4963942;28;96847;-72
2022/01/23 15:46:23;;;;;;;56.55;50.55;;;18.70;51.20;;;;;;4970004;28;95785;-72
2022/01/23 15:48:49;;;;;;;57.17;51.03;;;19.00;51.00;;;;;;4964910;28;95996;-72
2022/01/23 15:51:15;;;;;;;57.85;51.55;;;19.20;50.70;;;;;;4965342;28;95710;-73
2022/01/23 15:53:41;;;;;;;58.50;52.20;;;19.40;50.50;;;;;;4962908;28;99405;-73
2022/01/23 15:56:07;;;;;;;58.75;51.63;;;19.50;50.10;;;;;;4963201;28;97080;-72
2022/01/23 15:58:32;;;;;;;57.13;50.92;;;19.70;50.00;;;;;;4957540;28;95432;-71
2022/01/23 16:00:58;;;;;;;56.92;50.72;;;19.80;49.70;;;;;;4956486;28;96520;-72
2022/01/23 16:03:26;;;;;;;57.17;50.97;;;19.90;49.50;;;;;;4943260;28;96892;-73
2022/01/23 16:05:52;;;;;;;56.85;50.70;;;20.00;49.80;;;;;;4957878;28;97025;-74
2022/01/23 16:08:19;;;;;;;58.20;51.58;;;20.20;49.10;;;;;;4943301;28;96220;-74
2022/01/23 16:10:44;;;;;;;56.92;50.70;;;20.20;48.90;;;;;;4965672;28;96136;-76
2022/01/23 16:13:10;;;;;;;57.92;51.25;;;20.40;49.00;;;;;;4961160;28;95211;-73
2022/01/23 16:15:36;;;;;;;58.40;51.58;;;20.50;49.00;;;;;;4949658;28;97384;-74
2022/01/23 16:18:02;;;;;;;57.70;51.47;;;20.50;49.10;;;;;;4963736;28;95990;-74